KACT/ACT METAR and TAF weather

Enter ICAO airport designator
Station Type Date Time Source
KACT METAR 2020/08/15 16:51 UTC NOAA

KACT 151651Z 19009KT 10SM CLR 36/21 A2995 RMK AO2 SLP132 T03610211


Station Type Date Time Source
KACT Decoded METAR 2020/08/15 16:51 UTC NOAA

WACO REGIONAL AIRPORT, TX, United States (KACT) 31-36N 97-13W 151M
Aug 15, 2020 - 12:51 PM EDT / 2020.08.15 1651 UTC
Wind: from the S (190 degrees) at 10 MPH (9 KT):0
Visibility: 10 mile(s):0
Sky conditions: clear
Temperature: 97.0 F (36.1 C)
Heat index: 103.5 F (39.7 C):1
Dew Point: 70.0 F (21.1 C)
Relative Humidity: 41%
Pressure (altimeter): 29.95 in. Hg (1014 hPa)
ob: KACT 151651Z 19009KT 10SM CLR 36/21 A2995 RMK AO2 SLP132 T03610211
cycle: 17

Station Type Date Time Source
KACT TAF 2020/08/15 15:57 UTC NOAA

TAF
AMD KACT 151454Z 1515/1612 17012KT P6SM FEW300

Example: see airport list